createdAt,value
2022-12-01T00:01:41.583Z,57.92
2022-12-01T00:04:08.659Z,48.65
2022-12-01T00:06:37.248Z,50.63
2022-12-01T00:09:04.258Z,51.67
2022-12-01T00:11:32.997Z,49.28
2022-12-01T00:14:01.423Z,55.13
2022-12-01T00:16:29.209Z,49.45
2022-12-01T00:18:56.620Z,46.00
2022-12-01T00:21:26.538Z,51.30
2022-12-01T00:23:55.637Z,47.38
2022-12-01T00:26:24.317Z,52.80
2022-12-01T00:28:55.899Z,53.55
2022-12-01T00:31:24.677Z,50.42
2022-12-01T00:33:51.687Z,51.80
2022-12-01T00:36:18.842Z,49.00
2022-12-01T00:38:46.585Z,51.65
2022-12-01T00:41:14.154Z,52.28
2022-12-01T00:43:41.284Z,52.55
2022-12-01T00:46:11.515Z,49.67
2022-12-01T00:48:38.598Z,56.13
2022-12-01T00:51:06.044Z,54.95
2022-12-01T00:53:32.900Z,53.33
2022-12-01T00:56:00.098Z,49.33
2022-12-01T00:58:27.719Z,51.22
2022-12-01T01:00:58.851Z,56.25
2022-12-01T01:03:28.372Z,52.40
2022-12-01T01:05:55.557Z,50.83
2022-12-01T01:08:22.785Z,52.38
2022-12-01T01:10:49.806Z,54.05
2022-12-01T01:13:16.787Z,50.10
2022-12-01T01:15:44.117Z,54.47
2022-12-01T01:18:12.568Z,51.47
2022-12-01T01:20:40.814Z,50.20
2022-12-01T01:23:08.859Z,51.00
2022-12-01T01:25:35.712Z,47.55
2022-12-01T01:28:02.903Z,51.88
2022-12-01T01:30:30.229Z,48.42
2022-12-01T01:32:57.213Z,49.17
2022-12-01T01:35:24.149Z,52.10
2022-12-01T01:37:52.596Z,48.97
2022-12-01T01:40:19.589Z,50.20
2022-12-01T01:42:46.867Z,53.17
2022-12-01T01:45:22.550Z,49.20
2022-12-01T01:47:52.456Z,51.13
2022-12-01T01:50:24.973Z,46.45
2022-12-01T01:53:01.194Z,50.05
2022-12-01T01:55:29.948Z,52.47
2022-12-01T01:57:57.534Z,48.15
2022-12-01T02:00:24.710Z,47.97
2022-12-01T02:02:54.142Z,53.17
2022-12-01T02:05:24.336Z,52.70
2022-12-01T02:07:56.171Z,46.80
2022-12-01T02:10:31.517Z,52.38
2022-12-01T02:13:12.286Z,48.35
2022-12-01T02:15:50.123Z,55.53
2022-12-01T02:18:29.421Z,53.60
2022-12-01T02:21:30.740Z,50.55
2022-12-01T02:25:03.547Z,51.95
2022-12-01T02:27:54.424Z,51.42
2022-12-01T02:30:39.187Z,46.75
2022-12-01T02:33:16.064Z,50.40
2022-12-01T02:35:49.886Z,49.28
2022-12-01T02:38:30.185Z,45.78
2022-12-01T02:41:07.760Z,50.50
2022-12-01T02:43:45.570Z,48.22
2022-12-01T02:46:23.735Z,52.80
2022-12-01T02:48:55.441Z,55.00
2022-12-01T02:51:27.950Z,53.47
2022-12-01T02:53:59.199Z,51.72
2022-12-01T02:56:26.932Z,53.10
2022-12-01T02:58:55.629Z,51.08
2022-12-01T03:01:47.153Z,49.50
2022-12-01T03:04:38.954Z,52.13
2022-12-01T03:07:25.410Z,54.63
2022-12-01T03:10:05.226Z,51.65
2022-12-01T03:12:43.508Z,53.75
2022-12-01T03:15:35.959Z,53.40
2022-12-01T03:18:20.588Z,49.83
2022-12-01T03:20:58.915Z,50.90
2022-12-01T03:23:31.851Z,52.22
2022-12-01T03:26:04.475Z,49.47
2022-12-01T03:28:37.420Z,51.33
2022-12-01T03:31:10.341Z,53.63
2022-12-01T03:33:46.420Z,53.47
2022-12-01T03:36:20.843Z,56.53
2022-12-01T03:38:54.393Z,50.90
2022-12-01T03:41:37.973Z,53.15
2022-12-01T03:44:35.927Z,52.40
2022-12-01T03:47:07.271Z,47.20
2022-12-01T03:49:36.783Z,58.13
2022-12-01T03:52:20.010Z,51.78
2022-12-01T03:55:01.070Z,52.80
2022-12-01T03:57:34.389Z,50.92
2022-12-01T04:00:02.454Z,56.25
2022-12-01T04:02:40.774Z,50.25
2022-12-01T04:05:09.468Z,57.88
2022-12-01T04:07:36.632Z,58.15
2022-12-01T04:10:05.401Z,53.58
2022-12-01T04:12:32.918Z,60.15
2022-12-01T04:15:03.350Z,57.40
2022-12-01T04:17:30.867Z,62.50
2022-12-01T04:19:58.005Z,54.63
2022-12-01T04:22:27.520Z,56.38
2022-12-01T04:24:54.371Z,56.55
2022-12-01T04:27:21.328Z,58.90
2022-12-01T04:29:48.586Z,59.15
2022-12-01T04:32:15.889Z,60.28
2022-12-01T04:34:43.508Z,55.70
2022-12-01T04:37:10.409Z,53.47
2022-12-01T04:39:38.650Z,56.22
2022-12-01T04:42:05.786Z,51.75
2022-12-01T04:44:35.080Z,58.55
2022-12-01T04:47:02.586Z,52.58
2022-12-01T04:49:29.720Z,50.83
2022-12-01T04:51:56.804Z,53.20
2022-12-01T04:54:24.632Z,51.55
2022-12-01T04:56:53.035Z,59.92
2022-12-01T04:59:20.065Z,52.95
2022-12-01T05:01:46.991Z,50.33
2022-12-01T05:04:14.788Z,56.92
2022-12-01T05:06:42.275Z,50.75
2022-12-01T05:09:17.468Z,52.60
2022-12-01T05:11:45.267Z,58.67
2022-12-01T05:14:13.451Z,57.05
2022-12-01T05:16:40.606Z,54.00
2022-12-01T05:19:07.546Z,55.50
2022-12-01T05:21:34.403Z,50.92
2022-12-01T05:24:01.453Z,54.40
2022-12-01T05:26:28.442Z,58.08
2022-12-01T05:28:55.558Z,57.15
2022-12-01T05:31:23.974Z,52.78
2022-12-01T05:33:51.142Z,52.85
2022-12-01T05:36:18.793Z,52.53
2022-12-01T05:38:46.122Z,58.08
2022-12-01T05:41:13.616Z,52.00
2022-12-01T05:43:40.536Z,54.55
2022-12-01T05:46:07.812Z,56.60
2022-12-01T05:48:36.293Z,55.78
2022-12-01T05:51:09.181Z,53.63
2022-12-01T05:53:36.124Z,61.00
2022-12-01T05:56:03.087Z,54.88
2022-12-01T05:58:29.928Z,53.17
2022-12-01T06:00:56.783Z,53.15
2022-12-01T06:03:23.632Z,56.25
2022-12-01T06:05:51.997Z,52.50
2022-12-01T06:08:19.221Z,56.33
2022-12-01T06:10:46.619Z,50.50
2022-12-01T06:13:13.981Z,54.20
2022-12-01T06:15:40.923Z,57.08
2022-12-01T06:18:09.009Z,55.47
2022-12-01T06:20:36.275Z,54.03
2022-12-01T06:23:09.785Z,54.75
2022-12-01T06:25:39.689Z,57.10
2022-12-01T06:28:06.533Z,59.35
2022-12-01T06:30:33.549Z,56.15
2022-12-01T06:33:00.805Z,51.67
2022-12-01T06:35:28.263Z,59.03
2022-12-01T06:37:55.187Z,54.33
2022-12-01T06:40:24.069Z,53.25
2022-12-01T06:42:51.412Z,54.45
2022-12-01T06:45:18.677Z,55.90
2022-12-01T06:47:45.785Z,53.90
2022-12-01T06:50:12.722Z,59.92
2022-12-01T06:52:39.739Z,60.00
2022-12-01T06:55:07.683Z,57.22
2022-12-01T06:57:36.295Z,60.97
2022-12-01T07:00:06.240Z,57.50
2022-12-01T07:02:34.205Z,56.83
2022-12-01T07:05:01.544Z,50.45
2022-12-01T07:07:28.847Z,53.42
2022-12-01T07:09:56.279Z,54.20
2022-12-01T07:12:23.227Z,53.97
2022-12-01T07:14:51.628Z,55.55
2022-12-01T07:17:18.593Z,57.75
2022-12-01T07:19:45.517Z,52.40
2022-12-01T07:22:12.628Z,53.70
2022-12-01T07:24:40.025Z,55.47
2022-12-01T07:27:06.852Z,52.63
2022-12-01T07:29:33.773Z,58.38
2022-12-01T07:32:02.174Z,53.60
2022-12-01T07:34:29.158Z,53.08
2022-12-01T07:36:56.006Z,55.20
2022-12-01T07:39:23.408Z,61.10
2022-12-01T07:41:50.328Z,57.38
2022-12-01T07:44:17.424Z,59.60
2022-12-01T07:46:44.361Z,53.50
2022-12-01T07:49:12.683Z,54.50
2022-12-01T07:51:39.654Z,54.05
2022-12-01T07:54:07.300Z,57.55
2022-12-01T07:56:34.417Z,51.88
2022-12-01T07:59:01.380Z,48.35
2022-12-01T08:01:28.670Z,56.67
2022-12-01T08:03:58.170Z,55.78
2022-12-01T08:06:27.006Z,57.13
2022-12-01T08:08:54.859Z,51.78
2022-12-01T08:11:24.700Z,53.90
2022-12-01T08:13:53.595Z,54.88
2022-12-01T08:16:24.046Z,58.13
2022-12-01T08:18:51.315Z,53.60
2022-12-01T08:21:21.606Z,53.80
2022-12-01T08:23:54.395Z,56.55
2022-12-01T08:26:22.767Z,56.63
2022-12-01T08:28:50.602Z,54.65
2022-12-01T08:31:21.280Z,54.70
2022-12-01T08:33:49.524Z,54.40
2022-12-01T08:36:17.455Z,52.10
2022-12-01T08:38:45.328Z,53.67
2022-12-01T08:44:31.614Z,46.83
2022-12-01T08:46:58.616Z,50.55
2022-12-01T08:49:25.577Z,50.83
2022-12-01T08:51:52.920Z,47.95
2022-12-01T08:54:19.728Z,49.42
2022-12-01T08:56:48.416Z,50.85
2022-12-01T08:59:15.322Z,50.15
2022-12-01T09:01:42.493Z,47.25
2022-12-01T09:04:09.552Z,50.92
2022-12-01T09:06:42.220Z,45.05
2022-12-01T09:09:12.901Z,49.00
2022-12-01T09:11:40.943Z,50.40
2022-12-01T09:14:09.622Z,45.80
2022-12-01T09:16:37.120Z,42.67
2022-12-01T09:19:04.463Z,42.00
2022-12-01T09:21:34.893Z,42.10
2022-12-01T09:24:03.227Z,45.15
2022-12-01T09:26:31.012Z,41.60
2022-12-01T09:29:02.122Z,42.13
2022-12-01T09:31:30.960Z,48.23
2022-12-01T09:34:05.818Z,43.58
2022-12-01T09:36:35.339Z,37.03
2022-12-01T09:39:03.763Z,44.13
2022-12-01T09:41:35.646Z,44.08
2022-12-01T09:44:12.120Z,39.75
2022-12-01T09:46:46.205Z,44.13
2022-12-01T09:49:20.239Z,41.00
2022-12-01T09:51:47.330Z,41.85
2022-12-01T09:54:14.884Z,35.10
2022-12-01T09:56:47.228Z,41.13
2022-12-01T09:59:20.927Z,36.75
2022-12-01T10:01:55.653Z,38.03
2022-12-01T10:04:31.044Z,39.67
2022-12-01T10:07:01.823Z,35.17
2022-12-01T10:09:39.317Z,36.92
2022-12-01T10:12:15.353Z,40.38
2022-12-01T10:14:45.375Z,38.95
2022-12-01T10:17:30.416Z,35.38
2022-12-01T10:20:05.985Z,38.78
2022-12-01T10:23:09.635Z,39.13
2022-12-01T10:25:48.627Z,34.00
2022-12-01T10:28:44.699Z,33.92
2022-12-01T10:31:20.106Z,33.28
2022-12-01T10:34:06.287Z,31.75
2022-12-01T10:36:34.171Z,32.58
2022-12-01T10:39:03.613Z,34.38
2022-12-01T10:41:36.141Z,37.35
2022-12-01T10:44:29.697Z,34.88
2022-12-01T10:46:57.049Z,32.53
2022-12-01T10:49:36.843Z,27.00
2022-12-01T10:52:04.520Z,34.13
2022-12-01T10:54:38.704Z,32.85
2022-12-01T10:57:13.113Z,34.75
2022-12-01T10:59:50.463Z,34.95
2022-12-01T11:02:21.721Z,34.92
2022-12-01T11:04:57.253Z,33.50
2022-12-01T11:07:29.599Z,36.88
2022-12-01T11:10:17.149Z,31.80
2022-12-01T11:12:52.869Z,28.52
2022-12-01T11:15:24.298Z,33.17
2022-12-01T11:17:59.696Z,28.13
2022-12-01T11:20:33.828Z,28.00
2022-12-01T11:23:27.893Z,31.10
2022-12-01T11:26:04.164Z,30.77
2022-12-01T11:28:34.564Z,25.23
2022-12-01T11:31:05.203Z,25.63
2022-12-01T11:33:45.046Z,26.20
2022-12-01T11:36:27.154Z,26.38
2022-12-01T11:39:00.777Z,20.15
2022-12-01T11:41:35.733Z,22.83
2022-12-01T11:44:12.782Z,22.08
2022-12-01T11:46:55.821Z,24.33
2022-12-01T11:49:29.986Z,27.05
2022-12-01T11:52:17.126Z,24.17
2022-12-01T11:54:56.873Z,19.55
2022-12-01T11:57:39.712Z,24.30
2022-12-01T12:00:14.405Z,24.02
2022-12-01T12:02:52.977Z,21.00
2022-12-01T12:06:38.384Z,23.55
2022-12-01T12:09:27.354Z,23.33
2022-12-01T12:12:07.726Z,27.30
2022-12-01T12:14:59.747Z,18.00
2022-12-01T12:17:50.960Z,13.95
2022-12-01T12:20:48.855Z,17.55
2022-12-01T12:23:40.103Z,22.23
2022-12-01T12:26:20.257Z,18.65
2022-12-01T12:29:22.075Z,23.75
2022-12-01T12:32:10.703Z,21.17
2022-12-01T12:34:50.974Z,27.90
2022-12-01T12:37:31.389Z,24.55
2022-12-01T12:40:38.611Z,22.00
2022-12-01T12:43:25.189Z,21.30
2022-12-01T12:46:02.150Z,23.25
2022-12-01T12:51:47.631Z,18.23
2022-12-01T12:54:25.008Z,22.50
2022-12-01T12:57:00.420Z,21.40
2022-12-01T12:59:37.073Z,20.33
2022-12-01T13:02:16.768Z,23.23
2022-12-01T13:04:54.239Z,23.75
2022-12-01T13:07:34.586Z,21.35
2022-12-01T13:10:14.413Z,23.25
2022-12-01T13:12:54.614Z,20.73
2022-12-01T13:15:23.616Z,23.25
2022-12-01T13:17:55.285Z,22.10
2022-12-01T13:20:29.111Z,23.60
2022-12-01T13:23:00.956Z,26.35
2022-12-01T13:25:34.729Z,23.48
2022-12-01T13:28:06.942Z,23.83
2022-12-01T13:30:35.401Z,23.92
2022-12-01T13:33:05.041Z,28.83
2022-12-01T13:35:35.981Z,23.88
2022-12-01T13:38:30.256Z,22.00
2022-12-01T13:41:24.009Z,23.00
2022-12-01T13:44:03.782Z,23.35
2022-12-01T13:46:52.483Z,26.95
2022-12-01T13:49:38.176Z,19.67
2022-12-01T13:52:32.407Z,22.83
2022-12-01T13:55:19.985Z,20.02
2022-12-01T13:58:10.061Z,21.60
2022-12-01T14:00:37.653Z,24.25
2022-12-01T14:03:40.963Z,23.77
2022-12-01T14:06:25.816Z,24.17
2022-12-01T14:08:58.982Z,24.52
2022-12-01T14:11:28.371Z,22.17
2022-12-01T14:14:01.365Z,20.50
2022-12-01T14:16:47.546Z,20.85
2022-12-01T14:19:33.740Z,19.98
2022-12-01T14:22:02.221Z,20.90
2022-12-01T14:24:35.517Z,22.10
2022-12-01T14:27:03.720Z,20.15
2022-12-01T14:29:33.913Z,19.45
2022-12-01T14:32:23.177Z,19.88
2022-12-01T14:35:05.302Z,19.88
2022-12-01T14:37:49.480Z,20.45
2022-12-01T14:40:25.288Z,20.77
2022-12-01T14:42:56.919Z,21.33
2022-12-01T14:45:30.753Z,20.42
2022-12-01T14:48:03.074Z,22.02
2022-12-01T14:50:46.725Z,22.17
2022-12-01T14:53:25.321Z,17.63
2022-12-01T14:55:56.612Z,20.27
2022-12-01T14:58:27.913Z,21.13
2022-12-01T15:04:00.042Z,16.83
2022-12-01T15:06:33.934Z,21.25
2022-12-01T15:12:02.489Z,19.48
2022-12-01T15:14:33.990Z,21.98
2022-12-01T15:17:02.095Z,19.90
2022-12-01T15:19:36.136Z,20.00
2022-12-01T15:22:13.693Z,19.75
2022-12-01T15:24:41.308Z,19.05
2022-12-01T15:27:25.957Z,18.55
2022-12-01T15:29:53.484Z,18.42
2022-12-01T15:35:19.998Z,19.00
2022-12-01T15:37:49.820Z,21.98
2022-12-01T15:43:15.957Z,18.02
2022-12-01T15:45:50.661Z,19.33
2022-12-01T15:48:28.091Z,18.08
2022-12-01T15:51:18.351Z,18.80
2022-12-01T15:53:56.671Z,21.92
2022-12-01T15:56:27.931Z,16.55
2022-12-01T15:59:02.768Z,18.67
2022-12-01T16:01:31.612Z,20.77
2022-12-01T16:04:03.714Z,19.55
2022-12-01T16:06:35.106Z,22.45
2022-12-01T16:09:07.331Z,21.55
2022-12-01T16:14:05.331Z,20.00
2022-12-01T16:16:41.453Z,20.77
2022-12-01T16:19:28.604Z,25.58
2022-12-01T16:22:01.496Z,19.38
2022-12-01T16:24:34.099Z,22.73
2022-12-01T16:27:04.614Z,21.48
2022-12-01T16:29:44.668Z,22.02
2022-12-01T16:32:20.966Z,27.67
2022-12-01T16:34:51.244Z,19.33
2022-12-01T16:37:19.332Z,23.90
2022-12-01T16:39:48.002Z,26.90
2022-12-01T16:42:18.026Z,22.88
2022-12-01T16:44:45.392Z,23.85
2022-12-01T16:47:16.021Z,24.23
2022-12-01T16:49:42.978Z,27.90
2022-12-01T16:55:35.022Z,22.83
2022-12-01T16:58:02.387Z,25.50
2022-12-01T17:00:51.224Z,33.47
2022-12-01T17:03:20.188Z,27.75
2022-12-01T17:05:48.167Z,34.08
2022-12-01T17:08:16.240Z,28.23
2022-12-01T17:10:48.433Z,37.95
2022-12-01T17:15:45.388Z,41.55
2022-12-01T17:18:13.906Z,35.17
2022-12-01T17:20:41.003Z,29.90
2022-12-01T17:23:08.005Z,36.80
2022-12-01T17:25:35.544Z,33.25
2022-12-01T17:28:03.978Z,35.95
2022-12-01T17:30:30.875Z,39.25
2022-12-01T17:32:59.600Z,37.20
2022-12-01T17:35:26.741Z,36.95
2022-12-01T17:37:53.881Z,39.20
2022-12-01T17:40:20.858Z,40.67
2022-12-01T17:42:50.647Z,37.03
2022-12-01T17:45:19.645Z,34.45
2022-12-01T17:47:46.637Z,37.10
2022-12-01T17:50:14.203Z,41.08
2022-12-01T17:52:41.413Z,41.13
2022-12-01T17:55:09.523Z,40.67
2022-12-01T17:57:36.466Z,42.20
2022-12-01T18:00:07.333Z,37.78
2022-12-01T18:18:01.893Z,34.10
2022-12-01T18:20:29.602Z,41.97
2022-12-01T18:22:56.643Z,36.67
2022-12-01T18:25:23.551Z,36.42
2022-12-01T18:27:50.464Z,42.30
2022-12-01T18:30:17.490Z,38.83
2022-12-01T18:32:44.536Z,41.80
2022-12-01T18:35:12.795Z,41.92
2022-12-01T18:37:40.007Z,35.38
2022-12-01T18:40:09.285Z,44.00
2022-12-01T18:42:36.518Z,45.08
2022-12-01T18:45:04.127Z,46.70
2022-12-01T18:47:31.075Z,38.55
2022-12-01T18:49:57.884Z,42.88
2022-12-01T18:52:26.099Z,42.83
2022-12-01T18:54:54.437Z,44.75
2022-12-01T18:57:21.668Z,43.53
2022-12-01T18:59:48.477Z,48.13
2022-12-01T19:02:15.585Z,41.75
2022-12-01T19:04:43.169Z,47.90
2022-12-01T19:07:10.071Z,45.65
2022-12-01T19:09:38.917Z,44.28
2022-12-01T19:12:06.674Z,44.13
2022-12-01T19:14:33.834Z,45.05
2022-12-01T19:17:01.136Z,43.35
2022-12-01T19:19:29.936Z,46.03
2022-12-01T19:21:58.835Z,42.42
2022-12-01T19:24:25.704Z,43.58
2022-12-01T19:26:53.977Z,37.80
2022-12-01T19:29:21.619Z,45.35
2022-12-01T19:31:49.262Z,42.63
2022-12-01T19:34:16.339Z,41.15
2022-12-01T19:36:43.442Z,38.45
2022-12-01T19:39:11.400Z,40.97
2022-12-01T19:41:38.272Z,35.47
2022-12-01T19:44:32.175Z,37.58
2022-12-01T19:46:59.199Z,42.35
2022-12-01T19:49:26.312Z,40.20
2022-12-01T19:51:53.400Z,39.30
2022-12-01T19:54:20.643Z,42.83
2022-12-01T19:56:47.704Z,37.70
2022-12-01T19:59:15.112Z,40.03
2022-12-01T20:01:43.633Z,38.63
2022-12-01T20:07:02.418Z,37.88
2022-12-01T20:09:29.476Z,40.83
2022-12-01T20:11:56.687Z,34.05
2022-12-01T20:14:23.894Z,37.70
2022-12-01T20:16:54.493Z,38.55
2022-12-01T20:19:46.858Z,32.92
2022-12-01T20:22:13.949Z,36.90
2022-12-01T20:24:40.860Z,37.38
2022-12-01T20:27:08.796Z,38.53
2022-12-01T20:29:35.652Z,37.13
2022-12-01T20:32:04.906Z,30.85
2022-12-01T20:34:35.519Z,40.65
2022-12-01T20:37:03.269Z,39.53
2022-12-01T20:39:30.319Z,46.10
2022-12-01T20:41:57.595Z,41.88
2022-12-01T20:44:24.677Z,37.53
2022-12-01T20:46:51.920Z,38.08
2022-12-01T20:49:20.502Z,43.78
2022-12-01T20:51:48.147Z,45.03
2022-12-01T20:54:32.453Z,45.47
2022-12-01T20:56:59.621Z,30.40
2022-12-01T20:59:27.452Z,43.35
2022-12-01T21:01:55.301Z,34.97
2022-12-01T21:04:23.522Z,39.08
2022-12-01T21:06:50.366Z,47.33
2022-12-01T21:09:17.671Z,41.10
2022-12-01T21:11:48.199Z,39.40
2022-12-01T21:14:19.653Z,34.25
2022-12-01T21:16:48.338Z,48.13
2022-12-01T21:19:23.773Z,40.97
2022-12-01T21:21:52.409Z,42.97
2022-12-01T21:24:21.508Z,44.95
2022-12-01T21:26:52.173Z,39.53
2022-12-01T21:29:22.541Z,32.63
2022-12-01T21:31:53.085Z,37.35
2022-12-01T21:34:22.936Z,37.85
2022-12-01T21:36:54.502Z,23.35
2022-12-01T21:39:23.867Z,33.17
2022-12-01T21:42:12.262Z,39.67
2022-12-01T21:44:39.350Z,30.23
2022-12-01T21:47:18.427Z,33.53
2022-12-01T21:49:49.107Z,34.10
2022-12-01T21:52:21.612Z,33.80
2022-12-01T21:54:49.743Z,31.17
2022-12-01T21:57:42.217Z,36.97
2022-12-01T22:00:28.078Z,38.72
2022-12-01T22:03:13.943Z,36.65
2022-12-01T22:05:55.865Z,37.90
2022-12-01T22:08:35.441Z,32.97
2022-12-01T22:11:05.444Z,38.13
2022-12-01T22:13:43.877Z,39.85
2022-12-01T22:16:16.360Z,44.55
2022-12-01T22:18:49.370Z,38.17
2022-12-01T22:21:34.457Z,33.75
2022-12-01T22:24:20.985Z,33.35
2022-12-01T22:26:51.945Z,33.33
2022-12-01T22:29:28.317Z,34.65
2022-12-01T22:32:43.254Z,34.25
2022-12-01T22:35:33.625Z,34.13
2022-12-01T22:38:20.509Z,33.08
2022-12-01T22:40:58.707Z,37.15
2022-12-01T22:43:46.530Z,34.47
2022-12-01T22:46:23.950Z,29.40
2022-12-01T22:48:53.666Z,36.65
2022-12-01T22:51:41.410Z,35.55
2022-12-01T22:54:37.989Z,38.47
2022-12-01T22:57:29.121Z,30.40
2022-12-01T22:59:56.552Z,41.08
2022-12-01T23:02:34.049Z,30.75
2022-12-01T23:08:10.332Z,37.58
2022-12-01T23:10:40.201Z,31.23
2022-12-01T23:13:19.973Z,33.13
2022-12-01T23:15:48.949Z,36.20
2022-12-01T23:18:21.140Z,38.13
2022-12-01T23:20:51.068Z,38.38
2022-12-01T23:23:21.126Z,35.63
2022-12-01T23:25:50.515Z,34.63
2022-12-01T23:28:20.076Z,36.22
2022-12-01T23:30:53.086Z,39.40
2022-12-01T23:33:23.055Z,43.80
2022-12-01T23:35:56.221Z,42.38
2022-12-01T23:38:28.716Z,38.85
2022-12-01T23:43:34.280Z,34.85
2022-12-01T23:46:07.194Z,32.35
2022-12-01T23:48:40.165Z,33.97
2022-12-01T23:51:20.704Z,33.45
2022-12-01T23:53:47.912Z,38.75
2022-12-01T23:56:20.504Z,31.63
2022-12-01T23:58:49.784Z,39.33
